Terminal Aerodrome Forecast
Issued by NWS

Home | Current Version | Previous Version | Graphics & Text | Print | Product List | Glossary On
Versions: 1 2 3 4 5 6 7 8 9 10 11 12 13 14
000
FTUS43 KBIS 172300
TAFJMS
TAF
KJMS 172333Z 1800/1824 13008KT P6SM BKN090
     FM181300 11013G23KT P6SM BKN060
     FM181700 12022G32KT P6SM BKN110=

USA.gov is the U.S. government's official web portal to all federal, state and local government web resources and services.